Terminal Aerodrome Forecast
Issued by NWS

Home | Current Version | Previous Version | Text Only | Print | Product List | Glossary On
Versions: 1 2 3 4 5 6 7 8 9 10 11 12 13 14 15 16 17 18
148
FTUS45 KTFX 170520
TAFCTB
TAF
KCTB 170520Z 1706/1806 25013G23KT P6SM FEW100
      TEMPO 1706/1709 BKN100
     FM170900 24013G25KT P6SM FEW120 FEW250
     FM171300 25016G29KT P6SM BKN110 BKN200=

USA.gov is the U.S. government's official web portal to all federal, state and local government web resources and services.